createdAt,value
2022-08-07T00:00:35.170Z,14.38
2022-08-07T00:03:06.556Z,14.37
2022-08-07T00:05:38.129Z,14.27
2022-08-07T00:08:08.033Z,14.35
2022-08-07T00:10:48.007Z,14.30
2022-08-07T00:13:25.466Z,14.31
2022-08-07T00:15:56.397Z,14.34
2022-08-07T00:18:27.183Z,13.69
2022-08-07T00:21:01.411Z,14.29
2022-08-07T00:23:34.979Z,14.27
2022-08-07T00:26:13.074Z,14.11
2022-08-07T00:28:55.755Z,14.24
2022-08-07T00:31:26.252Z,14.23
2022-08-07T00:34:08.750Z,14.21
2022-08-07T00:36:42.719Z,14.12
2022-08-07T00:39:16.883Z,14.18
2022-08-07T00:42:01.415Z,14.17
2022-08-07T00:44:33.522Z,14.16
2022-08-07T00:47:03.049Z,14.17
2022-08-07T00:50:19.370Z,14.12
2022-08-07T00:52:26.779Z,14.09
2022-08-07T00:54:56.190Z,14.01
2022-08-07T00:57:26.294Z,14.08
2022-08-07T01:00:00.269Z,14.13
2022-08-07T01:02:31.004Z,14.07
2022-08-07T01:05:00.486Z,14.07
2022-08-07T01:07:34.056Z,14.05
2022-08-07T01:10:06.537Z,13.99
2022-08-07T01:12:53.779Z,13.96
2022-08-07T01:16:00.507Z,13.95
2022-08-07T01:18:20.249Z,13.86
2022-08-07T01:21:22.549Z,13.64
2022-08-07T01:23:57.721Z,13.76
2022-08-07T01:26:28.242Z,13.77
2022-08-07T01:28:57.202Z,13.73
2022-08-07T01:31:41.580Z,13.73
2022-08-07T01:34:15.533Z,13.69
2022-08-07T01:36:51.404Z,13.61
2022-08-07T01:39:41.183Z,13.63
2022-08-07T01:42:58.645Z,13.57
2022-08-07T01:45:36.227Z,13.52
2022-08-07T01:48:18.139Z,13.55
2022-08-07T01:50:58.283Z,13.52
2022-08-07T01:54:09.642Z,13.47
2022-08-07T01:56:29.042Z,13.49
2022-08-07T01:59:06.642Z,13.48
2022-08-07T02:01:59.747Z,13.48
2022-08-07T02:04:34.919Z,13.26
2022-08-07T02:07:08.202Z,13.44
2022-08-07T02:09:52.707Z,13.42
2022-08-07T02:12:33.435Z,13.47
2022-08-07T02:15:06.787Z,13.45
2022-08-07T02:17:49.843Z,13.43
2022-08-07T02:20:24.463Z,13.39
2022-08-07T02:23:02.758Z,13.31
2022-08-07T02:26:30.527Z,13.36
2022-08-07T02:28:30.095Z,13.33
2022-08-07T02:31:18.875Z,13.32
2022-08-07T02:34:10.926Z,13.13
2022-08-07T02:36:49.457Z,13.24
2022-08-07T02:39:43.113Z,13.24
2022-08-07T02:42:16.209Z,13.18
2022-08-07T02:44:51.922Z,13.17
2022-08-07T02:48:01.676Z,13.12
2022-08-07T02:50:36.097Z,13.12
2022-08-07T02:53:11.827Z,13.13
2022-08-07T02:56:04.169Z,13.12
2022-08-07T02:58:39.769Z,13.15
2022-08-07T03:01:36.576Z,13.13
2022-08-07T03:04:14.653Z,13.13
2022-08-07T03:06:48.408Z,13.16
2022-08-07T03:09:43.668Z,13.07
2022-08-07T03:12:22.537Z,13.08
2022-08-07T03:15:07.891Z,13.14
2022-08-07T03:17:53.806Z,13.11
2022-08-07T03:20:25.719Z,13.10
2022-08-07T03:22:57.000Z,13.08
2022-08-07T03:25:32.417Z,13.07
2022-08-07T03:28:37.217Z,13.04
2022-08-07T03:31:24.612Z,13.05
2022-08-07T03:34:02.790Z,13.10
2022-08-07T03:36:37.428Z,13.12
2022-08-07T03:39:13.180Z,13.07
2022-08-07T03:41:47.773Z,13.02
2022-08-07T03:44:31.890Z,13.04
2022-08-07T03:47:13.854Z,13.02
2022-08-07T03:49:53.474Z,13.00
2022-08-07T03:52:29.359Z,12.99
2022-08-07T03:55:08.954Z,12.83
2022-08-07T03:58:33.181Z,12.94
2022-08-07T04:00:39.705Z,12.95
2022-08-07T04:03:18.359Z,12.96
2022-08-07T04:05:52.784Z,12.94
2022-08-07T04:08:29.215Z,12.91
2022-08-07T04:12:25.367Z,12.87
2022-08-07T04:14:09.529Z,12.89
2022-08-07T04:16:43.014Z,12.90
2022-08-07T04:19:51.191Z,12.88
2022-08-07T04:22:20.830Z,12.85
2022-08-07T04:24:53.114Z,12.85
2022-08-07T04:27:35.950Z,12.87
2022-08-07T04:30:35.909Z,12.82
2022-08-07T04:33:09.702Z,12.79
2022-08-07T04:35:50.946Z,12.84
2022-08-07T04:38:26.180Z,12.85
2022-08-07T04:40:56.522Z,12.88
2022-08-07T04:44:10.046Z,12.78
2022-08-07T04:46:35.938Z,12.75
2022-08-07T04:49:37.854Z,12.80
2022-08-07T04:52:19.977Z,12.83
2022-08-07T04:55:14.820Z,12.85
2022-08-07T04:58:12.101Z,12.85
2022-08-07T05:00:51.637Z,12.95
2022-08-07T05:04:01.005Z,13.10
2022-08-07T05:06:23.835Z,12.98
2022-08-07T05:09:06.153Z,12.93
2022-08-07T05:11:57.261Z,12.86
2022-08-07T05:14:52.169Z,12.90
2022-08-07T05:17:52.777Z,12.84
2022-08-07T05:20:17.152Z,12.95
2022-08-07T05:22:48.774Z,13.16
2022-08-07T05:25:25.501Z,13.28
2022-08-07T05:28:20.763Z,13.57
2022-08-07T05:30:54.091Z,13.84
2022-08-07T05:33:25.981Z,14.09
2022-08-07T05:35:57.440Z,14.33
2022-08-07T05:38:59.511Z,14.60
2022-08-07T05:41:18.927Z,14.86
2022-08-07T05:44:07.970Z,15.00
2022-08-07T05:46:43.896Z,15.14
2022-08-07T05:49:14.451Z,15.37
2022-08-07T05:51:47.912Z,15.54
2022-08-07T05:54:30.541Z,15.75
2022-08-07T05:57:10.837Z,16.05
2022-08-07T05:59:56.211Z,16.18
2022-08-07T06:02:34.191Z,15.72
2022-08-07T06:05:10.749Z,16.49
2022-08-07T06:08:13.570Z,16.65
2022-08-07T06:10:33.282Z,16.85
2022-08-07T06:13:04.244Z,17.08
2022-08-07T06:15:38.939Z,17.19
2022-08-07T06:18:14.465Z,17.40
2022-08-07T06:22:16.022Z,17.62
2022-08-07T06:24:37.509Z,17.70
2022-08-07T06:26:32.921Z,17.77
2022-08-07T06:29:06.547Z,17.89
2022-08-07T06:31:47.289Z,17.86
2022-08-07T06:34:20.778Z,18.03
2022-08-07T06:36:51.910Z,18.33
2022-08-07T06:40:17.062Z,18.48
2022-08-07T06:42:20.379Z,18.73
2022-08-07T06:45:21.746Z,18.92
2022-08-07T06:47:59.869Z,19.05
2022-08-07T06:50:43.345Z,19.16
2022-08-07T06:55:29.757Z,19.33
2022-08-07T06:56:15.935Z,19.41
2022-08-07T07:00:13.247Z,19.36
2022-08-07T07:01:50.982Z,19.72
2022-08-07T07:04:32.505Z,19.88
2022-08-07T07:07:19.006Z,19.94
2022-08-07T07:09:56.122Z,20.04
2022-08-07T07:12:53.774Z,20.34
2022-08-07T07:15:32.602Z,20.07
2022-08-07T07:18:15.244Z,20.11
2022-08-07T07:21:13.583Z,20.04
2022-08-07T07:24:08.774Z,20.25
2022-08-07T07:26:51.816Z,20.50
2022-08-07T07:29:39.147Z,20.70
2022-08-07T07:32:16.065Z,20.44
2022-08-07T07:34:50.865Z,20.66
2022-08-07T07:37:45.497Z,20.84
2022-08-07T07:40:17.914Z,20.93
2022-08-07T07:42:51.403Z,21.25
2022-08-07T07:46:40.358Z,21.37
2022-08-07T07:48:35.146Z,21.67
2022-08-07T07:51:08.611Z,21.47
2022-08-07T07:53:51.320Z,21.70
2022-08-07T07:56:29.782Z,21.66
2022-08-07T07:59:02.065Z,21.74
2022-08-07T08:02:03.464Z,21.90
2022-08-07T08:04:25.766Z,21.90
2022-08-07T08:07:02.696Z,22.05
2022-08-07T08:09:52.612Z,22.13
2022-08-07T08:12:51.981Z,22.27
2022-08-07T08:15:23.333Z,22.36
2022-08-07T08:18:36.831Z,22.57
2022-08-07T08:20:43.595Z,22.74
2022-08-07T08:23:38.005Z,22.86
2022-08-07T08:26:26.721Z,23.00
2022-08-07T08:28:59.523Z,23.07
2022-08-07T08:31:58.674Z,23.13
2022-08-07T08:34:34.819Z,23.19
2022-08-07T08:37:10.007Z,23.26
2022-08-07T08:39:59.378Z,23.33
2022-08-07T08:42:33.004Z,23.19
2022-08-07T08:45:14.013Z,23.34
2022-08-07T08:47:55.370Z,23.41
2022-08-07T08:50:34.861Z,23.40
2022-08-07T08:53:20.411Z,23.34
2022-08-07T08:55:58.489Z,23.50
2022-08-07T08:58:36.235Z,23.65
2022-08-07T09:01:14.595Z,23.63
2022-08-07T09:03:55.333Z,23.64
2022-08-07T09:06:47.680Z,23.55
2022-08-07T09:09:36.815Z,23.68
2022-08-07T09:12:20.246Z,22.81
2022-08-07T09:16:23.677Z,23.85
2022-08-07T09:18:22.691Z,23.73
2022-08-07T09:21:04.987Z,23.54
2022-08-07T09:24:31.269Z,23.64
2022-08-07T09:26:47.775Z,23.59
2022-08-07T09:30:05.651Z,23.63
2022-08-07T09:32:31.115Z,23.92
2022-08-07T09:36:04.082Z,24.07
2022-08-07T09:38:14.090Z,23.87
2022-08-07T09:41:04.075Z,23.92
2022-08-07T09:44:05.934Z,23.88
2022-08-07T09:47:50.660Z,24.09
2022-08-07T09:50:03.930Z,23.41
2022-08-07T09:52:52.148Z,23.43
2022-08-07T09:55:29.264Z,23.91
2022-08-07T09:58:32.027Z,24.03
2022-08-07T10:01:50.970Z,24.41
2022-08-07T10:04:28.162Z,24.56
2022-08-07T10:07:25.606Z,24.67
2022-08-07T10:10:21.790Z,24.77
2022-08-07T10:13:15.833Z,24.96
2022-08-07T10:16:13.241Z,25.00
2022-08-07T10:19:11.289Z,24.91
2022-08-07T10:22:15.889Z,25.04
2022-08-07T10:25:05.019Z,24.97
2022-08-07T10:27:51.297Z,24.91
2022-08-07T10:30:28.676Z,24.95
2022-08-07T10:34:06.332Z,25.10
2022-08-07T10:36:29.815Z,25.14
2022-08-07T10:39:06.528Z,25.15
2022-08-07T10:41:47.507Z,25.08
2022-08-07T10:44:37.835Z,25.29
2022-08-07T10:47:27.130Z,25.35
2022-08-07T10:50:16.160Z,25.52
2022-08-07T10:52:59.927Z,25.51
2022-08-07T10:55:46.846Z,25.48
2022-08-07T10:58:36.719Z,25.57
2022-08-07T11:01:23.958Z,25.28
2022-08-07T11:04:05.678Z,25.12
2022-08-07T11:07:02.922Z,25.53
2022-08-07T11:10:08.920Z,25.65
2022-08-07T11:12:43.350Z,25.05
2022-08-07T11:15:21.572Z,25.07
2022-08-07T11:21:40.830Z,25.17
2022-08-07T11:24:21.656Z,25.41
2022-08-07T11:26:56.941Z,25.58
2022-08-07T11:29:42.762Z,25.47
2022-08-07T11:32:26.198Z,25.74
2022-08-07T11:35:00.704Z,25.46
2022-08-07T11:37:58.088Z,25.71
2022-08-07T11:40:49.827Z,25.73
2022-08-07T11:43:29.543Z,25.98
2022-08-07T11:46:23.343Z,26.11
2022-08-07T11:49:50.194Z,26.06
2022-08-07T11:52:10.270Z,25.08
2022-08-07T11:54:59.435Z,25.17
2022-08-07T11:57:57.729Z,25.39
2022-08-07T12:00:33.987Z,25.64
2022-08-07T12:03:46.990Z,25.74
2022-08-07T12:06:37.739Z,26.04
2022-08-07T12:09:16.073Z,25.96
2022-08-07T12:12:08.849Z,25.74
2022-08-07T12:14:51.485Z,25.21
2022-08-07T12:17:39.103Z,25.36
2022-08-07T12:20:30.193Z,25.64
2022-08-07T12:23:37.244Z,25.22
2022-08-07T12:26:29.316Z,25.97
2022-08-07T12:29:08.439Z,26.01
2022-08-07T12:32:01.829Z,26.05
2022-08-07T12:34:36.017Z,26.24
2022-08-07T12:37:08.671Z,25.82
2022-08-07T12:39:57.459Z,26.12
2022-08-07T12:42:32.028Z,26.23
2022-08-07T12:45:09.938Z,26.19
2022-08-07T12:47:49.470Z,25.91
2022-08-07T12:50:39.081Z,25.36
2022-08-07T12:53:17.759Z,25.41
2022-08-07T12:56:02.989Z,25.67
2022-08-07T12:58:39.377Z,25.80
2022-08-07T13:01:20.389Z,25.80
2022-08-07T13:04:34.567Z,25.70
2022-08-07T13:08:14.076Z,25.11
2022-08-07T13:10:51.372Z,25.11
2022-08-07T13:13:47.477Z,25.38
2022-08-07T13:16:25.853Z,24.94
2022-08-07T13:19:03.962Z,24.90
2022-08-07T13:21:57.530Z,25.21
2022-08-07T13:24:35.845Z,24.85
2022-08-07T13:27:20.588Z,24.78
2022-08-07T13:30:07.471Z,24.53
2022-08-07T13:32:54.864Z,24.84
2022-08-07T13:36:00.416Z,24.86
2022-08-07T13:38:28.481Z,24.57
2022-08-07T13:41:06.519Z,24.79
2022-08-07T13:43:43.584Z,24.79
2022-08-07T13:46:28.266Z,24.80
2022-08-07T13:49:04.265Z,24.63
2022-08-07T13:52:22.927Z,23.90
2022-08-07T13:54:33.551Z,24.31
2022-08-07T13:57:08.288Z,24.23
2022-08-07T13:59:39.667Z,23.94
2022-08-07T14:02:20.141Z,24.08
2022-08-07T14:05:07.621Z,24.06
2022-08-07T14:07:59.538Z,23.84
2022-08-07T14:10:42.242Z,24.02
2022-08-07T14:13:17.904Z,23.92
2022-08-07T14:15:56.949Z,23.93
2022-08-07T14:18:33.193Z,24.00
2022-08-07T14:22:00.469Z,23.79
2022-08-07T14:24:05.032Z,23.87
2022-08-07T14:26:40.559Z,23.85
2022-08-07T14:30:05.561Z,23.69
2022-08-07T14:32:07.920Z,23.51
2022-08-07T14:34:45.638Z,23.53
2022-08-07T14:37:18.375Z,23.54
2022-08-07T14:40:17.300Z,23.38
2022-08-07T14:42:59.948Z,23.43
2022-08-07T14:45:46.874Z,23.45
2022-08-07T14:48:27.497Z,23.58
2022-08-07T14:51:00.294Z,23.60
2022-08-07T14:56:30.132Z,23.60
2022-08-07T14:59:13.772Z,23.29
2022-08-07T15:01:58.191Z,23.05
2022-08-07T15:04:28.640Z,23.52
2022-08-07T15:07:00.981Z,23.59
2022-08-07T15:12:26.211Z,23.73
2022-08-07T15:15:07.693Z,23.69
2022-08-07T15:20:32.822Z,23.76
2022-08-07T15:23:16.870Z,23.73
2022-08-07T15:25:56.162Z,23.68
2022-08-07T15:28:34.616Z,23.54
2022-08-07T15:31:10.541Z,23.74
2022-08-07T15:33:43.044Z,23.81
2022-08-07T15:36:13.653Z,23.84
2022-08-07T15:44:52.705Z,23.55
2022-08-07T15:48:01.174Z,23.64
2022-08-07T15:53:11.506Z,23.24
2022-08-07T15:55:58.681Z,23.40
2022-08-07T15:58:38.505Z,23.56
2022-08-07T16:01:20.187Z,23.24
2022-08-07T16:03:54.387Z,22.52
2022-08-07T16:06:31.544Z,22.91
2022-08-07T16:09:02.604Z,22.76
2022-08-07T16:11:53.414Z,22.63
2022-08-07T16:14:45.573Z,23.02
2022-08-07T16:18:02.553Z,23.21
2022-08-07T16:21:43.733Z,23.42
2022-08-07T16:23:58.737Z,23.20
2022-08-07T16:26:58.761Z,23.14
2022-08-07T16:30:10.962Z,22.78
2022-08-07T16:32:46.286Z,22.77
2022-08-07T16:35:59.368Z,22.63
2022-08-07T16:39:00.453Z,22.53
2022-08-07T16:42:15.968Z,22.74
2022-08-07T16:45:19.273Z,22.38
2022-08-07T16:48:37.697Z,22.40
2022-08-07T16:51:54.645Z,22.36
2022-08-07T16:54:37.470Z,22.37
2022-08-07T16:58:03.545Z,22.37
2022-08-07T17:00:30.071Z,22.11
2022-08-07T17:03:17.679Z,22.04
2022-08-07T17:06:29.810Z,21.37
2022-08-07T17:09:15.797Z,21.90
2022-08-07T17:12:36.692Z,21.56
2022-08-07T17:15:02.568Z,21.68
2022-08-07T17:17:45.995Z,21.73
2022-08-07T17:20:30.100Z,21.57
2022-08-07T17:23:08.615Z,21.58
2022-08-07T17:25:54.585Z,21.65
2022-08-07T17:28:32.340Z,21.57
2022-08-07T17:31:16.137Z,21.23
2022-08-07T17:34:15.134Z,21.35
2022-08-07T17:36:57.540Z,21.22
2022-08-07T17:39:57.647Z,20.95
2022-08-07T17:42:59.729Z,20.92
2022-08-07T17:45:35.112Z,21.00
2022-08-07T17:48:11.113Z,20.88
2022-08-07T17:50:54.481Z,20.63
2022-08-07T17:54:00.591Z,20.64
2022-08-07T17:56:28.849Z,20.66
2022-08-07T17:59:04.698Z,20.74
2022-08-07T18:01:45.816Z,20.67
2022-08-07T18:04:30.856Z,20.52
2022-08-07T18:07:23.736Z,20.13
2022-08-07T18:10:07.167Z,20.59
2022-08-07T18:13:06.881Z,20.45
2022-08-07T18:15:56.547Z,20.30
2022-08-07T18:18:45.286Z,20.13
2022-08-07T18:21:51.572Z,19.60
2022-08-07T18:24:28.516Z,20.21
2022-08-07T18:27:39.102Z,20.17
2022-08-07T18:30:31.518Z,20.09
2022-08-07T18:33:55.315Z,20.02
2022-08-07T18:36:33.783Z,20.13
2022-08-07T18:40:07.791Z,20.02
2022-08-07T18:42:18.707Z,19.86
2022-08-07T18:45:44.431Z,19.76
2022-08-07T18:48:00.976Z,19.77
2022-08-07T18:50:54.393Z,19.78
2022-08-07T18:53:39.404Z,19.54
2022-08-07T18:56:17.485Z,19.60
2022-08-07T18:59:46.898Z,19.61
2022-08-07T19:02:34.480Z,19.30
2022-08-07T19:05:15.859Z,19.15
2022-08-07T19:07:58.643Z,18.57
2022-08-07T19:10:49.585Z,19.15
2022-08-07T19:13:27.556Z,19.17
2022-08-07T19:17:04.141Z,19.18
2022-08-07T19:19:00.817Z,19.20
2022-08-07T19:21:47.564Z,19.05
2022-08-07T19:24:30.749Z,18.88
2022-08-07T19:28:30.083Z,18.71
2022-08-07T19:31:02.071Z,18.65
2022-08-07T19:33:02.419Z,18.64
2022-08-07T19:35:41.402Z,18.53
2022-08-07T19:38:17.108Z,18.25
2022-08-07T19:40:51.531Z,18.41
2022-08-07T19:43:50.172Z,18.39
2022-08-07T19:46:18.747Z,18.17
2022-08-07T19:48:53.560Z,17.56
2022-08-07T19:51:51.968Z,18.00
2022-08-07T19:54:33.669Z,18.03
2022-08-07T19:58:03.203Z,18.05
2022-08-07T20:00:00.647Z,17.99
2022-08-07T20:02:39.393Z,17.82
2022-08-07T20:05:13.548Z,17.79
2022-08-07T20:07:50.692Z,17.69
2022-08-07T20:10:38.116Z,17.95
2022-08-07T20:13:23.951Z,17.67
2022-08-07T20:15:58.344Z,17.61
2022-08-07T20:18:32.216Z,17.61
2022-08-07T20:21:20.937Z,17.60
2022-08-07T20:24:00.365Z,17.58
2022-08-07T20:26:44.734Z,17.50
2022-08-07T20:29:49.210Z,17.36
2022-08-07T20:32:11.451Z,17.28
2022-08-07T20:34:53.923Z,17.28
2022-08-07T20:37:29.429Z,17.32
2022-08-07T20:40:02.466Z,17.42
2022-08-07T20:42:38.612Z,17.34
2022-08-07T20:45:32.651Z,17.23
2022-08-07T20:48:05.129Z,17.02
2022-08-07T20:50:34.984Z,16.88
2022-08-07T20:53:05.786Z,16.91
2022-08-07T20:55:37.312Z,16.89
2022-08-07T20:58:19.225Z,16.35
2022-08-07T21:01:07.326Z,16.93
2022-08-07T21:04:19.529Z,16.93
2022-08-07T21:06:53.462Z,16.94
2022-08-07T21:09:51.635Z,16.95
2022-08-07T21:12:28.503Z,16.94
2022-08-07T21:15:02.888Z,17.00
2022-08-07T21:18:05.819Z,17.02
2022-08-07T21:20:29.701Z,16.88
2022-08-07T21:23:09.057Z,16.96
2022-08-07T21:25:56.512Z,16.94
2022-08-07T21:28:49.035Z,16.96
2022-08-07T21:32:42.604Z,16.94
2022-08-07T21:34:32.683Z,16.86
2022-08-07T21:37:08.355Z,16.84
2022-08-07T21:39:54.917Z,16.78
2022-08-07T21:42:42.879Z,16.63
2022-08-07T21:46:08.049Z,16.63
2022-08-07T21:48:29.137Z,16.69
2022-08-07T21:51:19.915Z,16.73
2022-08-07T21:53:56.508Z,16.61
2022-08-07T21:56:49.116Z,16.78
2022-08-07T22:00:03.198Z,16.72
2022-08-07T22:02:35.372Z,16.90
2022-08-07T22:05:07.283Z,16.89
2022-08-07T22:07:59.344Z,16.83
2022-08-07T22:10:35.420Z,16.77
2022-08-07T22:13:12.701Z,16.46
2022-08-07T22:16:44.089Z,16.66
2022-08-07T22:18:43.550Z,16.66
2022-08-07T22:21:20.478Z,16.66
2022-08-07T22:23:56.076Z,16.66
2022-08-07T22:26:31.080Z,16.64
2022-08-07T22:29:09.031Z,16.61
2022-08-07T22:32:05.315Z,16.52
2022-08-07T22:34:53.441Z,16.47
2022-08-07T22:38:01.614Z,16.50
2022-08-07T22:40:29.168Z,16.50
2022-08-07T22:43:07.888Z,16.47
2022-08-07T22:46:21.461Z,16.37
2022-08-07T22:49:09.713Z,16.44
2022-08-07T22:52:36.518Z,16.39
2022-08-07T22:55:39.860Z,16.41
2022-08-07T22:58:31.969Z,16.36
2022-08-07T23:01:16.904Z,16.36
2022-08-07T23:03:59.979Z,16.34
2022-08-07T23:06:56.352Z,16.34
2022-08-07T23:10:05.525Z,16.28
2022-08-07T23:12:50.854Z,16.29
2022-08-07T23:16:07.350Z,16.25
2022-08-07T23:18:42.684Z,16.21
2022-08-07T23:21:30.331Z,16.16
2022-08-07T23:24:27.977Z,16.19
2022-08-07T23:27:12.636Z,16.17
2022-08-07T23:30:39.356Z,16.10
2022-08-07T23:34:19.860Z,16.04
2022-08-07T23:36:17.438Z,15.99
2022-08-07T23:39:08.624Z,14.94
2022-08-07T23:42:04.997Z,15.92
2022-08-07T23:45:15.435Z,15.84
2022-08-07T23:48:25.540Z,15.69
2022-08-07T23:51:01.144Z,15.73
2022-08-07T23:53:49.925Z,15.71
2022-08-07T23:56:31.202Z,15.69
